sensor_id;sensor_type;location;lat;lon;timestamp;temperature;humidity
2477;DHT22;1249;51.270;6.756;2023-04-01T00:00:28;14.10;99.90
2477;DHT22;1249;51.270;6.756;2023-04-01T00:02:54;14.00;99.90
2477;DHT22;1249;51.270;6.756;2023-04-01T00:05:20;14.00;99.90
2477;DHT22;1249;51.270;6.756;2023-04-01T00:07:46;14.00;99.90
2477;DHT22;1249;51.270;6.756;2023-04-01T00:10:13;14.00;99.90
2477;DHT22;1249;51.270;6.756;2023-04-01T00:12:39;14.00;99.90
2477;DHT22;1249;51.270;6.756;2023-04-01T00:15:06;14.00;99.90
2477;DHT22;1249;51.270;6.756;2023-04-01T00:17:32;14.00;99.90
2477;DHT22;1249;51.270;6.756;2023-04-01T00:19:58;14.00;99.90
2477;DHT22;1249;51.270;6.756;2023-04-01T00:22:25;14.00;99.90
2477;DHT22;1249;51.270;6.756;2023-04-01T00:24:51;13.90;99.90
2477;DHT22;1249;51.270;6.756;2023-04-01T00:27:17;14.00;99.90
2477;DHT22;1249;51.270;6.756;2023-04-01T00:29:44;13.90;99.90
2477;DHT22;1249;51.270;6.756;2023-04-01T00:32:09;13.90;99.90
2477;DHT22;1249;51.270;6.756;2023-04-01T00:34:35;13.90;99.90
2477;DHT22;1249;51.270;6.756;2023-04-01T00:37:01;13.90;99.90
2477;DHT22;1249;51.270;6.756;2023-04-01T00:39:29;13.90;99.90
2477;DHT22;1249;51.270;6.756;2023-04-01T00:41:55;13.90;99.90
2477;DHT22;1249;51.270;6.756;2023-04-01T00:44:30;13.90;99.90
2477;DHT22;1249;51.270;6.756;2023-04-01T00:46:58;13.90;99.90
2477;DHT22;1249;51.270;6.756;2023-04-01T00:49:28;13.90;99.90
2477;DHT22;1249;51.270;6.756;2023-04-01T00:51:56;13.90;99.90
2477;DHT22;1249;51.270;6.756;2023-04-01T00:54:24;13.80;99.90
2477;DHT22;1249;51.270;6.756;2023-04-01T00:57:02;13.80;99.90
2477;DHT22;1249;51.270;6.756;2023-04-01T00:59:35;13.80;99.90
2477;DHT22;1249;51.270;6.756;2023-04-01T01:02:04;13.80;99.90
2477;DHT22;1249;51.270;6.756;2023-04-01T01:04:32;13.80;99.90
2477;DHT22;1249;51.270;6.756;2023-04-01T01:10:24;13.80;99.90
2477;DHT22;1249;51.270;6.756;2023-04-01T01:18:46;13.80;99.90
2477;DHT22;1249;51.270;6.756;2023-04-01T01:21:42;13.70;99.90
2477;DHT22;1249;51.270;6.756;2023-04-01T01:27:08;13.70;99.90
2477;DHT22;1249;51.270;6.756;2023-04-01T01:29:45;13.70;99.90
2477;DHT22;1249;51.270;6.756;2023-04-01T01:35:38;13.70;99.90
2477;DHT22;1249;51.270;6.756;2023-04-01T01:38:01;13.70;99.90
2477;DHT22;1249;51.270;6.756;2023-04-01T01:40:28;13.70;99.90
2477;DHT22;1249;51.270;6.756;2023-04-01T01:42:59;13.70;99.90
2477;DHT22;1249;51.270;6.756;2023-04-01T01:45:26;13.70;99.90
2477;DHT22;1249;51.270;6.756;2023-04-01T01:47:55;13.70;99.90
2477;DHT22;1249;51.270;6.756;2023-04-01T01:50:22;13.70;99.90
2477;DHT22;1249;51.270;6.756;2023-04-01T01:52:49;13.60;99.90
2477;DHT22;1249;51.270;6.756;2023-04-01T01:55:33;13.70;99.90
2477;DHT22;1249;51.270;6.756;2023-04-01T01:58:07;13.60;99.90
2477;DHT22;1249;51.270;6.756;2023-04-01T02:00:35;13.60;99.90
2477;DHT22;1249;51.270;6.756;2023-04-01T02:03:01;13.60;99.90
2477;DHT22;1249;51.270;6.756;2023-04-01T02:05:29;13.60;99.90
2477;DHT22;1249;51.270;6.756;2023-04-01T02:08:02;13.60;99.90
2477;DHT22;1249;51.270;6.756;2023-04-01T02:10:35;13.70;99.90
2477;DHT22;1249;51.270;6.756;2023-04-01T02:13:07;13.60;99.90
2477;DHT22;1249;51.270;6.756;2023-04-01T02:15:39;13.60;99.90
2477;DHT22;1249;51.270;6.756;2023-04-01T02:18:06;13.60;99.90
2477;DHT22;1249;51.270;6.756;2023-04-01T02:20:32;13.50;99.90
2477;DHT22;1249;51.270;6.756;2023-04-01T02:22:59;13.50;99.90
2477;DHT22;1249;51.270;6.756;2023-04-01T02:25:29;13.50;99.90
2477;DHT22;1249;51.270;6.756;2023-04-01T02:27:56;13.50;99.90
2477;DHT22;1249;51.270;6.756;2023-04-01T02:30:25;13.50;99.90
2477;DHT22;1249;51.270;6.756;2023-04-01T02:32:53;13.50;99.90
2477;DHT22;1249;51.270;6.756;2023-04-01T02:35:19;13.50;99.90
2477;DHT22;1249;51.270;6.756;2023-04-01T02:37:48;13.50;99.90
2477;DHT22;1249;51.270;6.756;2023-04-01T02:40:15;13.50;99.90
2477;DHT22;1249;51.270;6.756;2023-04-01T02:42:41;13.50;99.90
2477;DHT22;1249;51.270;6.756;2023-04-01T02:45:08;13.50;99.90
2477;DHT22;1249;51.270;6.756;2023-04-01T02:47:33;13.50;99.90
2477;DHT22;1249;51.270;6.756;2023-04-01T02:49:59;13.50;99.90
2477;DHT22;1249;51.270;6.756;2023-04-01T02:52:26;13.50;99.90
2477;DHT22;1249;51.270;6.756;2023-04-01T02:54:51;13.40;99.90
2477;DHT22;1249;51.270;6.756;2023-04-01T02:57:17;13.40;99.90
2477;DHT22;1249;51.270;6.756;2023-04-01T02:59:42;13.40;99.90
2477;DHT22;1249;51.270;6.756;2023-04-01T03:02:08;13.40;99.90
2477;DHT22;1249;51.270;6.756;2023-04-01T03:04:33;13.40;99.90
2477;DHT22;1249;51.270;6.756;2023-04-01T03:06:59;13.40;99.90
2477;DHT22;1249;51.270;6.756;2023-04-01T03:09:24;13.50;99.90
2477;DHT22;1249;51.270;6.756;2023-04-01T03:11:50;13.40;99.90
2477;DHT22;1249;51.270;6.756;2023-04-01T03:14:16;13.40;99.90
2477;DHT22;1249;51.270;6.756;2023-04-01T03:16:41;13.40;99.90
2477;DHT22;1249;51.270;6.756;2023-04-01T03:19:07;13.40;99.90
2477;DHT22;1249;51.270;6.756;2023-04-01T03:21:32;13.40;99.90
2477;DHT22;1249;51.270;6.756;2023-04-01T03:23:58;13.40;99.90
2477;DHT22;1249;51.270;6.756;2023-04-01T03:26:24;13.40;99.90
2477;DHT22;1249;51.270;6.756;2023-04-01T03:28:52;13.40;99.90
2477;DHT22;1249;51.270;6.756;2023-04-01T03:31:18;13.40;99.90
2477;DHT22;1249;51.270;6.756;2023-04-01T03:33:43;13.40;99.90
2477;DHT22;1249;51.270;6.756;2023-04-01T03:36:09;13.40;99.90
2477;DHT22;1249;51.270;6.756;2023-04-01T03:38:37;13.30;99.90
2477;DHT22;1249;51.270;6.756;2023-04-01T03:41:03;13.30;99.90
2477;DHT22;1249;51.270;6.756;2023-04-01T03:43:29;13.30;99.90
2477;DHT22;1249;51.270;6.756;2023-04-01T03:45:55;13.30;99.90
2477;DHT22;1249;51.270;6.756;2023-04-01T03:48:22;13.30;99.90
2477;DHT22;1249;51.270;6.756;2023-04-01T03:50:48;13.30;99.90
2477;DHT22;1249;51.270;6.756;2023-04-01T03:53:14;13.30;99.90
2477;DHT22;1249;51.270;6.756;2023-04-01T03:55:40;13.30;99.90
2477;DHT22;1249;51.270;6.756;2023-04-01T03:58:07;13.30;99.90
2477;DHT22;1249;51.270;6.756;2023-04-01T04:00:32;13.30;99.90
2477;DHT22;1249;51.270;6.756;2023-04-01T04:02:59;13.30;99.90
2477;DHT22;1249;51.270;6.756;2023-04-01T04:05:25;13.30;99.90
2477;DHT22;1249;51.270;6.756;2023-04-01T04:07:51;13.30;99.90
2477;DHT22;1249;51.270;6.756;2023-04-01T04:10:17;13.30;99.90
2477;DHT22;1249;51.270;6.756;2023-04-01T04:12:43;13.30;99.90
2477;DHT22;1249;51.270;6.756;2023-04-01T04:15:10;13.30;99.90
2477;DHT22;1249;51.270;6.756;2023-04-01T04:17:35;13.30;99.90
2477;DHT22;1249;51.270;6.756;2023-04-01T04:20:01;13.30;99.90
2477;DHT22;1249;51.270;6.756;2023-04-01T04:22:27;13.30;99.90
2477;DHT22;1249;51.270;6.756;2023-04-01T04:24:52;13.30;99.90
2477;DHT22;1249;51.270;6.756;2023-04-01T04:27:18;13.30;99.90
2477;DHT22;1249;51.270;6.756;2023-04-01T04:29:43;13.30;99.90
2477;DHT22;1249;51.270;6.756;2023-04-01T04:32:09;13.30;99.90
2477;DHT22;1249;51.270;6.756;2023-04-01T04:34:35;13.20;99.90
2477;DHT22;1249;51.270;6.756;2023-04-01T04:37:00;13.20;99.90
2477;DHT22;1249;51.270;6.756;2023-04-01T04:39:26;13.20;99.90
2477;DHT22;1249;51.270;6.756;2023-04-01T04:41:52;13.20;99.90
2477;DHT22;1249;51.270;6.756;2023-04-01T04:44:17;13.20;99.90
2477;DHT22;1249;51.270;6.756;2023-04-01T04:46:43;13.20;99.90
2477;DHT22;1249;51.270;6.756;2023-04-01T04:49:08;13.20;99.90
2477;DHT22;1249;51.270;6.756;2023-04-01T04:51:34;13.30;99.90
2477;DHT22;1249;51.270;6.756;2023-04-01T04:54:02;13.20;99.90
2477;DHT22;1249;51.270;6.756;2023-04-01T04:56:28;13.20;99.90
2477;DHT22;1249;51.270;6.756;2023-04-01T04:58:54;13.20;99.90
2477;DHT22;1249;51.270;6.756;2023-04-01T05:01:20;13.20;99.90
2477;DHT22;1249;51.270;6.756;2023-04-01T05:03:46;13.20;99.90
2477;DHT22;1249;51.270;6.756;2023-04-01T05:06:13;13.20;99.90
2477;DHT22;1249;51.270;6.756;2023-04-01T05:08:40;13.20;99.90
2477;DHT22;1249;51.270;6.756;2023-04-01T05:11:09;13.20;99.90
2477;DHT22;1249;51.270;6.756;2023-04-01T05:13:36;13.20;99.90
2477;DHT22;1249;51.270;6.756;2023-04-01T05:16:02;13.20;99.90
2477;DHT22;1249;51.270;6.756;2023-04-01T05:18:28;13.10;99.90
2477;DHT22;1249;51.270;6.756;2023-04-01T05:20:54;13.10;99.90
2477;DHT22;1249;51.270;6.756;2023-04-01T05:23:21;13.10;99.90
2477;DHT22;1249;51.270;6.756;2023-04-01T05:25:50;13.10;99.90
2477;DHT22;1249;51.270;6.756;2023-04-01T05:28:18;13.10;99.90
2477;DHT22;1249;51.270;6.756;2023-04-01T05:30:44;13.10;99.90
2477;DHT22;1249;51.270;6.756;2023-04-01T05:33:11;13.10;99.90
2477;DHT22;1249;51.270;6.756;2023-04-01T05:35:37;13.10;99.90
2477;DHT22;1249;51.270;6.756;2023-04-01T05:38:03;13.10;99.90
2477;DHT22;1249;51.270;6.756;2023-04-01T05:40:29;13.10;99.90
2477;DHT22;1249;51.270;6.756;2023-04-01T05:42:55;13.10;99.90
2477;DHT22;1249;51.270;6.756;2023-04-01T05:47:56;13.30;99.90
2477;DHT22;1249;51.270;6.756;2023-04-01T05:50:21;13.60;99.90
2477;DHT22;1249;51.270;6.756;2023-04-01T05:52:47;13.70;99.90
2477;DHT22;1249;51.270;6.756;2023-04-01T05:55:13;13.90;99.90
2477;DHT22;1249;51.270;6.756;2023-04-01T05:57:38;13.90;99.90
2477;DHT22;1249;51.270;6.756;2023-04-01T06:00:05;14.00;99.90
2477;DHT22;1249;51.270;6.756;2023-04-01T06:02:30;14.10;99.90
2477;DHT22;1249;51.270;6.756;2023-04-01T06:07:36;14.70;99.90
2477;DHT22;1249;51.270;6.756;2023-04-01T06:10:01;14.80;99.90
2477;DHT22;1249;51.270;6.756;2023-04-01T06:12:44;15.00;99.90
2477;DHT22;1249;51.270;6.756;2023-04-01T06:26:39;15.50;99.90
2477;DHT22;1249;51.270;6.756;2023-04-01T06:29:47;15.60;99.90
2477;DHT22;1249;51.270;6.756;2023-04-01T06:32:49;15.80;99.90
2477;DHT22;1249;51.270;6.756;2023-04-01T06:49:02;16.00;99.90
2477;DHT22;1249;51.270;6.756;2023-04-01T06:54:34;16.10;99.90
2477;DHT22;1249;51.270;6.756;2023-04-01T06:57:28;16.10;99.90
2477;DHT22;1249;51.270;6.756;2023-04-01T06:59:50;16.20;99.90
2477;DHT22;1249;51.270;6.756;2023-04-01T07:02:44;16.20;99.90
2477;DHT22;1249;51.270;6.756;2023-04-01T07:05:12;16.30;99.90
2477;DHT22;1249;51.270;6.756;2023-04-01T07:07:47;16.40;99.90
2477;DHT22;1249;51.270;6.756;2023-04-01T07:10:32;16.30;99.90
2477;DHT22;1249;51.270;6.756;2023-04-01T07:13:04;16.20;99.90
2477;DHT22;1249;51.270;6.756;2023-04-01T07:15:36;16.10;99.90
2477;DHT22;1249;51.270;6.756;2023-04-01T07:18:11;16.10;99.90
2477;DHT22;1249;51.270;6.756;2023-04-01T07:20:39;16.10;99.90
2477;DHT22;1249;51.270;6.756;2023-04-01T07:23:31;16.00;99.90
2477;DHT22;1249;51.270;6.756;2023-04-01T07:26:12;16.10;99.90
2477;DHT22;1249;51.270;6.756;2023-04-01T07:28:39;16.10;99.90
2477;DHT22;1249;51.270;6.756;2023-04-01T07:36:33;16.10;99.90
2477;DHT22;1249;51.270;6.756;2023-04-01T07:50:29;16.30;99.90
2477;DHT22;1249;51.270;6.756;2023-04-01T07:53:11;16.30;99.90
2477;DHT22;1249;51.270;6.756;2023-04-01T07:58:34;16.40;99.90
2477;DHT22;1249;51.270;6.756;2023-04-01T08:01:04;16.50;99.90
2477;DHT22;1249;51.270;6.756;2023-04-01T08:06:44;16.50;99.90
2477;DHT22;1249;51.270;6.756;2023-04-01T08:11:59;16.60;99.90
2477;DHT22;1249;51.270;6.756;2023-04-01T08:17:16;16.60;99.90
2477;DHT22;1249;51.270;6.756;2023-04-01T08:19:56;16.60;99.90
2477;DHT22;1249;51.270;6.756;2023-04-01T08:22:52;16.70;99.90
2477;DHT22;1249;51.270;6.756;2023-04-01T08:25:24;16.70;99.90
2477;DHT22;1249;51.270;6.756;2023-04-01T08:28:08;16.70;99.90
2477;DHT22;1249;51.270;6.756;2023-04-01T08:30:43;16.80;99.90
2477;DHT22;1249;51.270;6.756;2023-04-01T08:33:25;16.80;99.90
2477;DHT22;1249;51.270;6.756;2023-04-01T08:36:23;16.80;99.90
2477;DHT22;1249;51.270;6.756;2023-04-01T08:38:57;16.80;99.90
2477;DHT22;1249;51.270;6.756;2023-04-01T08:52:37;17.00;99.90
2477;DHT22;1249;51.270;6.756;2023-04-01T08:55:25;17.10;99.90
2477;DHT22;1249;51.270;6.756;2023-04-01T09:07:07;17.20;99.90
2477;DHT22;1249;51.270;6.756;2023-04-01T09:15:16;17.20;99.90
2477;DHT22;1249;51.270;6.756;2023-04-01T09:24:09;17.30;99.90
2477;DHT22;1249;51.270;6.756;2023-04-01T09:38:29;17.50;99.90
2477;DHT22;1249;51.270;6.756;2023-04-01T09:57:38;17.50;99.90
2477;DHT22;1249;51.270;6.756;2023-04-01T10:17:30;17.80;99.90
2477;DHT22;1249;51.270;6.756;2023-04-01T10:37:30;17.60;99.90
2477;DHT22;1249;51.270;6.756;2023-04-01T11:03:19;17.60;99.90
2477;DHT22;1249;51.270;6.756;2023-04-01T11:09:05;17.60;99.90
2477;DHT22;1249;51.270;6.756;2023-04-01T11:14:46;17.60;99.90
2477;DHT22;1249;51.270;6.756;2023-04-01T11:21:05;17.80;99.90
2477;DHT22;1249;51.270;6.756;2023-04-01T11:23:54;17.80;99.90
2477;DHT22;1249;51.270;6.756;2023-04-01T11:27:02;17.80;99.90
2477;DHT22;1249;51.270;6.756;2023-04-01T11:29:51;17.80;99.90
2477;DHT22;1249;51.270;6.756;2023-04-01T11:38:49;17.70;99.90
2477;DHT22;1249;51.270;6.756;2023-04-01T11:41:49;17.80;99.90
2477;DHT22;1249;51.270;6.756;2023-04-01T11:44:25;17.80;99.90
2477;DHT22;1249;51.270;6.756;2023-04-01T11:47:24;17.80;99.90
2477;DHT22;1249;51.270;6.756;2023-04-01T11:49:57;17.80;99.90
2477;DHT22;1249;51.270;6.756;2023-04-01T11:55:24;17.90;99.90
2477;DHT22;1249;51.270;6.756;2023-04-01T11:57:51;18.00;99.90
2477;DHT22;1249;51.270;6.756;2023-04-01T12:00:44;17.80;99.90
2477;DHT22;1249;51.270;6.756;2023-04-01T12:16:41;17.10;99.90
2477;DHT22;1249;51.270;6.756;2023-04-01T12:24:36;17.60;99.90
2477;DHT22;1249;51.270;6.756;2023-04-01T12:33:10;17.80;99.90
2477;DHT22;1249;51.270;6.756;2023-04-01T12:41:21;18.00;99.90
2477;DHT22;1249;51.270;6.756;2023-04-01T12:44:29;18.00;99.90
2477;DHT22;1249;51.270;6.756;2023-04-01T12:47:12;18.10;99.90
2477;DHT22;1249;51.270;6.756;2023-04-01T12:55:45;18.20;99.90
2477;DHT22;1249;51.270;6.756;2023-04-01T12:59:01;18.10;99.90
2477;DHT22;1249;51.270;6.756;2023-04-01T13:01:29;18.20;99.90
2477;DHT22;1249;51.270;6.756;2023-04-01T13:13:03;18.00;99.90
2477;DHT22;1249;51.270;6.756;2023-04-01T13:18:28;17.90;99.90
2477;DHT22;1249;51.270;6.756;2023-04-01T13:32:27;17.80;99.90
2477;DHT22;1249;51.270;6.756;2023-04-01T13:34:59;17.90;99.90
2477;DHT22;1249;51.270;6.756;2023-04-01T13:37:57;17.80;99.90
2477;DHT22;1249;51.270;6.756;2023-04-01T13:40:48;17.80;99.90
2477;DHT22;1249;51.270;6.756;2023-04-01T13:43:28;17.90;99.90
2477;DHT22;1249;51.270;6.756;2023-04-01T13:48:56;17.80;99.90
2477;DHT22;1249;51.270;6.756;2023-04-01T13:51:42;17.80;99.90
2477;DHT22;1249;51.270;6.756;2023-04-01T13:54:28;17.80;99.90
2477;DHT22;1249;51.270;6.756;2023-04-01T14:00:22;17.80;99.90
2477;DHT22;1249;51.270;6.756;2023-04-01T14:17:12;17.90;99.90
2477;DHT22;1249;51.270;6.756;2023-04-01T14:26:07;17.90;99.90
2477;DHT22;1249;51.270;6.756;2023-04-01T14:29:12;17.90;99.90
2477;DHT22;1249;51.270;6.756;2023-04-01T14:32:06;17.80;99.90
2477;DHT22;1249;51.270;6.756;2023-04-01T14:40:26;17.80;99.90
2477;DHT22;1249;51.270;6.756;2023-04-01T14:43:14;17.80;99.90
2477;DHT22;1249;51.270;6.756;2023-04-01T14:46:03;17.70;99.90
2477;DHT22;1249;51.270;6.756;2023-04-01T14:49:13;17.70;99.90
2477;DHT22;1249;51.270;6.756;2023-04-01T14:54:05;17.70;99.90
2477;DHT22;1249;51.270;6.756;2023-04-01T14:56:42;17.70;99.90
2477;DHT22;1249;51.270;6.756;2023-04-01T14:59:13;17.70;99.90
2477;DHT22;1249;51.270;6.756;2023-04-01T15:02:10;17.70;99.90
2477;DHT22;1249;51.270;6.756;2023-04-01T15:05:04;17.70;99.90
2477;DHT22;1249;51.270;6.756;2023-04-01T15:10:48;17.60;99.90
2477;DHT22;1249;51.270;6.756;2023-04-01T15:22:23;17.00;99.90
2477;DHT22;1249;51.270;6.756;2023-04-01T15:28:51;16.70;99.90
2477;DHT22;1249;51.270;6.756;2023-04-01T15:33:39;16.40;99.90
2477;DHT22;1249;51.270;6.756;2023-04-01T15:36:15;16.40;99.90
2477;DHT22;1249;51.270;6.756;2023-04-01T15:44:02;16.10;99.90
2477;DHT22;1249;51.270;6.756;2023-04-01T15:46:44;16.00;99.90
2477;DHT22;1249;51.270;6.756;2023-04-01T15:52:21;15.90;99.90
2477;DHT22;1249;51.270;6.756;2023-04-01T15:55:17;15.90;99.90
2477;DHT22;1249;51.270;6.756;2023-04-01T16:11:52;15.80;99.90
2477;DHT22;1249;51.270;6.756;2023-04-01T16:17:22;15.70;99.90
2477;DHT22;1249;51.270;6.756;2023-04-01T16:20:13;15.60;99.90
2477;DHT22;1249;51.270;6.756;2023-04-01T16:25:36;15.60;99.90
2477;DHT22;1249;51.270;6.756;2023-04-01T16:28:30;15.60;99.90
2477;DHT22;1249;51.270;6.756;2023-04-01T16:34:04;15.50;99.90
2477;DHT22;1249;51.270;6.756;2023-04-01T16:36:58;15.40;99.90
2477;DHT22;1249;51.270;6.756;2023-04-01T16:47:39;15.20;99.90
2477;DHT22;1249;51.270;6.756;2023-04-01T16:52:57;15.20;99.90
2477;DHT22;1249;51.270;6.756;2023-04-01T16:55:47;15.20;99.90
2477;DHT22;1249;51.270;6.756;2023-04-01T16:58:35;15.10;99.90
2477;DHT22;1249;51.270;6.756;2023-04-01T17:01:05;15.10;99.90
2477;DHT22;1249;51.270;6.756;2023-04-01T17:03:41;15.10;99.90
2477;DHT22;1249;51.270;6.756;2023-04-01T17:06:48;15.00;99.90
2477;DHT22;1249;51.270;6.756;2023-04-01T17:09:33;15.00;99.90
2477;DHT22;1249;51.270;6.756;2023-04-01T17:17:45;14.90;99.90
2477;DHT22;1249;51.270;6.756;2023-04-01T17:20:35;14.90;99.90
2477;DHT22;1249;51.270;6.756;2023-04-01T17:26:40;14.80;99.90
2477;DHT22;1249;51.270;6.756;2023-04-01T17:29:31;14.80;99.90
2477;DHT22;1249;51.270;6.756;2023-04-01T17:32:17;14.80;99.90
2477;DHT22;1249;51.270;6.756;2023-04-01T17:37:57;14.70;99.90
2477;DHT22;1249;51.270;6.756;2023-04-01T17:48:17;14.60;99.90
2477;DHT22;1249;51.270;6.756;2023-04-01T17:54:04;14.60;99.90
2477;DHT22;1249;51.270;6.756;2023-04-01T17:59:38;14.60;99.90
2477;DHT22;1249;51.270;6.756;2023-04-01T18:02:26;14.50;99.90
2477;DHT22;1249;51.270;6.756;2023-04-01T18:16:18;14.40;99.90
2477;DHT22;1249;51.270;6.756;2023-04-01T18:19:03;14.40;99.90
2477;DHT22;1249;51.270;6.756;2023-04-01T18:21:45;14.40;99.90
2477;DHT22;1249;51.270;6.756;2023-04-01T18:24:35;14.30;99.90
2477;DHT22;1249;51.270;6.756;2023-04-01T18:27:24;14.30;99.90
2477;DHT22;1249;51.270;6.756;2023-04-01T18:38:33;14.30;99.90
2477;DHT22;1249;51.270;6.756;2023-04-01T18:43:39;14.40;99.90
2477;DHT22;1249;51.270;6.756;2023-04-01T18:46:19;14.80;99.90
2477;DHT22;1249;51.270;6.756;2023-04-01T18:51:43;14.70;99.90
2477;DHT22;1249;51.270;6.756;2023-04-01T18:56:47;14.40;99.90
2477;DHT22;1249;51.270;6.756;2023-04-01T18:59:34;14.40;99.90
2477;DHT22;1249;51.270;6.756;2023-04-01T19:02:04;14.30;99.90
2477;DHT22;1249;51.270;6.756;2023-04-01T19:04:39;14.30;99.90
2477;DHT22;1249;51.270;6.756;2023-04-01T19:07:42;14.30;99.90
2477;DHT22;1249;51.270;6.756;2023-04-01T19:10:38;14.20;99.90
2477;DHT22;1249;51.270;6.756;2023-04-01T19:21:19;14.10;99.90
2477;DHT22;1249;51.270;6.756;2023-04-01T19:26:48;14.10;99.90
2477;DHT22;1249;51.270;6.756;2023-04-01T19:29:38;14.10;99.90
2477;DHT22;1249;51.270;6.756;2023-04-01T19:37:40;14.00;99.90
2477;DHT22;1249;51.270;6.756;2023-04-01T19:40:34;14.00;99.90
2477;DHT22;1249;51.270;6.756;2023-04-01T20:00:24;13.90;99.90
2477;DHT22;1249;51.270;6.756;2023-04-01T20:08:11;13.80;99.90
2477;DHT22;1249;51.270;6.756;2023-04-01T20:11:06;13.80;99.90
2477;DHT22;1249;51.270;6.756;2023-04-01T20:16:21;13.80;99.90
2477;DHT22;1249;51.270;6.756;2023-04-01T20:18:56;13.80;99.90
2477;DHT22;1249;51.270;6.756;2023-04-01T20:26:43;13.70;99.90
2477;DHT22;1249;51.270;6.756;2023-04-01T20:29:37;13.70;99.90
2477;DHT22;1249;51.270;6.756;2023-04-01T20:43:14;13.70;99.90
2477;DHT22;1249;51.270;6.756;2023-04-01T20:51:22;13.70;99.90
2477;DHT22;1249;51.270;6.756;2023-04-01T20:57:13;13.70;99.90
2477;DHT22;1249;51.270;6.756;2023-04-01T21:02:56;13.70;99.90
2477;DHT22;1249;51.270;6.756;2023-04-01T21:08:36;13.70;99.90
2477;DHT22;1249;51.270;6.756;2023-04-01T21:11:31;13.70;99.90
2477;DHT22;1249;51.270;6.756;2023-04-01T21:23:08;13.60;99.90
2477;DHT22;1249;51.270;6.756;2023-04-01T21:28:20;13.60;99.90
2477;DHT22;1249;51.270;6.756;2023-04-01T21:36:38;13.50;99.90
2477;DHT22;1249;51.270;6.756;2023-04-01T21:42:02;13.50;99.90
2477;DHT22;1249;51.270;6.756;2023-04-01T21:53:04;13.40;99.90
2477;DHT22;1249;51.270;6.756;2023-04-01T22:06:51;13.30;99.90
2477;DHT22;1249;51.270;6.756;2023-04-01T22:09:28;13.30;99.90
2477;DHT22;1249;51.270;6.756;2023-04-01T22:12:27;13.30;99.90
2477;DHT22;1249;51.270;6.756;2023-04-01T22:18:09;13.30;99.90
2477;DHT22;1249;51.270;6.756;2023-04-01T22:25:44;13.20;99.90
2477;DHT22;1249;51.270;6.756;2023-04-01T22:31:00;13.20;99.90
2477;DHT22;1249;51.270;6.756;2023-04-01T22:47:51;13.10;99.90
2477;DHT22;1249;51.270;6.756;2023-04-01T22:50:27;13.10;99.90
2477;DHT22;1249;51.270;6.756;2023-04-01T22:55:38;13.00;99.90
2477;DHT22;1249;51.270;6.756;2023-04-01T22:58:36;13.10;99.90
2477;DHT22;1249;51.270;6.756;2023-04-01T23:01:13;13.00;99.90
2477;DHT22;1249;51.270;6.756;2023-04-01T23:03:41;13.00;99.90
2477;DHT22;1249;51.270;6.756;2023-04-01T23:06:17;13.00;99.90
2477;DHT22;1249;51.270;6.756;2023-04-01T23:09:04;13.00;99.90
2477;DHT22;1249;51.270;6.756;2023-04-01T23:11:47;13.00;99.90
2477;DHT22;1249;51.270;6.756;2023-04-01T23:17:07;12.90;99.90
2477;DHT22;1249;51.270;6.756;2023-04-01T23:19:52;12.90;99.90
2477;DHT22;1249;51.270;6.756;2023-04-01T23:25:10;12.90;99.90
2477;DHT22;1249;51.270;6.756;2023-04-01T23:36:00;12.80;99.90
2477;DHT22;1249;51.270;6.756;2023-04-01T23:38:40;12.80;99.90
2477;DHT22;1249;51.270;6.756;2023-04-01T23:41:09;12.80;99.90
2477;DHT22;1249;51.270;6.756;2023-04-01T23:43:43;12.80;99.90
2477;DHT22;1249;51.270;6.756;2023-04-01T23:46:11;12.80;99.90
2477;DHT22;1249;51.270;6.756;2023-04-01T23:48:43;12.70;99.90
2477;DHT22;1249;51.270;6.756;2023-04-01T23:51:23;12.70;99.90
2477;DHT22;1249;51.270;6.756;2023-04-01T23:53:57;12.70;99.90
2477;DHT22;1249;51.270;6.756;2023-04-01T23:56:37;12.70;99.90
2477;DHT22;1249;51.270;6.756;2023-04-01T23:59:04;12.70;99.90
